sensor_id;sensor_type;location;lat;lon;timestamp;P1;durP1;ratioP1;P2;durP2;ratioP2
65863;SDS011;52639;51.180;20.460;2023-04-26T05:31:40;14.93;;;6.63;;
65863;SDS011;52639;51.180;20.460;2023-04-26T05:35:44;15.57;;;6.75;;
65863;SDS011;52639;51.180;20.460;2023-04-26T05:39:47;16.80;;;6.50;;
65863;SDS011;52639;51.180;20.460;2023-04-26T05:43:51;12.88;;;5.70;;
65863;SDS011;52639;51.180;20.460;2023-04-26T05:47:58;15.63;;;5.43;;
65863;SDS011;52639;51.180;20.460;2023-04-26T05:52:05;13.32;;;4.43;;
65863;SDS011;52639;51.180;20.460;2023-04-26T05:56:11;15.55;;;5.07;;
65863;SDS011;52639;51.180;20.460;2023-04-26T06:00:17;13.43;;;4.20;;
65863;SDS011;52639;51.180;20.460;2023-04-26T06:04:27;13.32;;;5.35;;
65863;SDS011;52639;51.180;20.460;2023-04-26T06:08:32;14.50;;;5.47;;
65863;SDS011;52639;51.180;20.460;2023-04-26T06:12:39;13.18;;;4.82;;
65863;SDS011;52639;51.180;20.460;2023-04-26T06:16:43;11.02;;;3.88;;
65863;SDS011;52639;51.180;20.460;2023-04-26T06:20:54;10.02;;;3.90;;
65863;SDS011;52639;51.180;20.460;2023-04-26T06:25:00;16.63;;;4.88;;
65863;SDS011;52639;51.180;20.460;2023-04-26T06:29:06;9.85;;;4.75;;
65863;SDS011;52639;51.180;20.460;2023-04-26T06:33:09;10.63;;;4.57;;
65863;SDS011;52639;51.180;20.460;2023-04-26T06:37:16;10.43;;;3.38;;
65863;SDS011;52639;51.180;20.460;2023-04-26T06:41:22;8.55;;;3.20;;
65863;SDS011;52639;51.180;20.460;2023-04-26T06:45:25;6.47;;;3.33;;
65863;SDS011;52639;51.180;20.460;2023-04-26T06:49:29;8.52;;;3.50;;
65863;SDS011;52639;51.180;20.460;2023-04-26T06:53:40;10.30;;;3.88;;
65863;SDS011;52639;51.180;20.460;2023-04-26T06:57:43;9.82;;;3.78;;
65863;SDS011;52639;51.180;20.460;2023-04-26T07:01:47;8.80;;;3.95;;
65863;SDS011;52639;51.180;20.460;2023-04-26T07:05:53;8.25;;;3.45;;
65863;SDS011;52639;51.180;20.460;2023-04-26T07:09:59;15.93;;;8.18;;
65863;SDS011;52639;51.180;20.460;2023-04-26T07:14:03;10.77;;;4.13;;
65863;SDS011;52639;51.180;20.460;2023-04-26T07:18:07;14.30;;;4.20;;
65863;SDS011;52639;51.180;20.460;2023-04-26T07:22:13;12.75;;;3.83;;
65863;SDS011;52639;51.180;20.460;2023-04-26T07:26:19;8.27;;;3.67;;
65863;SDS011;52639;51.180;20.460;2023-04-26T07:30:25;10.52;;;3.75;;
65863;SDS011;52639;51.180;20.460;2023-04-26T07:34:28;8.10;;;3.60;;
65863;SDS011;52639;51.180;20.460;2023-04-26T07:38:34;7.45;;;3.35;;
65863;SDS011;52639;51.180;20.460;2023-04-26T07:42:42;7.90;;;3.40;;
65863;SDS011;52639;51.180;20.460;2023-04-26T07:46:45;10.38;;;3.25;;
65863;SDS011;52639;51.180;20.460;2023-04-26T07:50:49;6.50;;;3.05;;
65863;SDS011;52639;51.180;20.460;2023-04-26T07:54:52;6.53;;;3.00;;
65863;SDS011;52639;51.180;20.460;2023-04-26T07:58:57;5.85;;;2.55;;
65863;SDS011;52639;51.180;20.460;2023-04-26T08:03:02;8.25;;;2.47;;
65863;SDS011;52639;51.180;20.460;2023-04-26T08:07:08;8.65;;;3.10;;
65863;SDS011;52639;51.180;20.460;2023-04-26T08:11:14;8.65;;;3.10;;
65863;SDS011;52639;51.180;20.460;2023-04-26T08:15:21;5.93;;;2.72;;
65863;SDS011;52639;51.180;20.460;2023-04-26T08:19:27;7.55;;;2.38;;
65863;SDS011;52639;51.180;20.460;2023-04-26T08:23:33;7.80;;;2.58;;
65863;SDS011;52639;51.180;20.460;2023-04-26T08:27:40;5.65;;;2.55;;
65863;SDS011;52639;51.180;20.460;2023-04-26T14:22:03;8.35;;;2.95;;
65863;SDS011;52639;51.180;20.460;2023-04-26T14:26:27;7.03;;;2.40;;
65863;SDS011;52639;51.180;20.460;2023-04-26T14:48:25;7.63;;;2.70;;
65863;SDS011;52639;51.180;20.460;2023-04-26T14:52:28;7.82;;;2.65;;
65863;SDS011;52639;51.180;20.460;2023-04-26T14:56:40;11.48;;;3.53;;
65863;SDS011;52639;51.180;20.460;2023-04-26T15:00:46;6.75;;;2.90;;
65863;SDS011;52639;51.180;20.460;2023-04-26T18:36:11;27.90;;;9.55;;
65863;SDS011;52639;51.180;20.460;2023-04-26T20:07:45;16.08;;;8.38;;
65863;SDS011;52639;51.180;20.460;2023-04-26T20:17:10;24.33;;;10.45;;
